createdAt,value
2022-08-14T00:02:01.561Z,23.86
2022-08-14T00:04:34.208Z,23.92
2022-08-14T00:07:02.513Z,23.88
2022-08-14T00:09:28.999Z,23.89
2022-08-14T00:11:59.791Z,23.83
2022-08-14T00:14:27.853Z,23.79
2022-08-14T00:16:55.902Z,23.70
2022-08-14T00:19:22.728Z,23.76
2022-08-14T00:21:50.744Z,23.75
2022-08-14T00:24:22.882Z,23.71
2022-08-14T00:26:55.607Z,23.62
2022-08-14T00:29:25.540Z,23.65
2022-08-14T00:31:56.064Z,23.63
2022-08-14T00:34:37.896Z,23.61
2022-08-14T00:37:09.507Z,23.66
2022-08-14T00:39:36.088Z,23.58
2022-08-14T00:42:04.007Z,23.54
2022-08-14T00:44:32.386Z,23.51
2022-08-14T00:47:19.639Z,23.47
2022-08-14T00:50:08.811Z,23.48
2022-08-14T00:53:06.604Z,23.44
2022-08-14T00:55:57.626Z,23.38
2022-08-14T00:58:45.080Z,23.34
2022-08-14T01:01:33.591Z,23.42
2022-08-14T01:04:05.653Z,23.39
2022-08-14T01:06:34.429Z,23.32
2022-08-14T01:09:02.301Z,23.31
2022-08-14T01:11:31.620Z,23.23
2022-08-14T01:14:18.125Z,23.17
2022-08-14T01:16:53.193Z,23.25
2022-08-14T01:19:41.416Z,23.21
2022-08-14T01:22:12.732Z,23.07
2022-08-14T01:24:41.418Z,23.04
2022-08-14T01:27:14.961Z,23.02
2022-08-14T01:29:58.758Z,23.10
2022-08-14T01:32:30.064Z,23.08
2022-08-14T01:35:17.699Z,23.10
2022-08-14T01:37:56.300Z,23.00
2022-08-14T01:40:36.567Z,22.94
2022-08-14T01:43:18.688Z,22.93
2022-08-14T01:45:57.719Z,22.74
2022-08-14T01:48:37.338Z,22.65
2022-08-14T01:51:19.121Z,22.54
2022-08-14T01:53:54.853Z,22.48
2022-08-14T01:56:37.474Z,22.47
2022-08-14T01:59:09.912Z,22.39
2022-08-14T02:01:37.845Z,22.39
2022-08-14T02:04:40.456Z,22.31
2022-08-14T02:06:55.888Z,22.32
2022-08-14T02:09:22.756Z,22.33
2022-08-14T02:11:50.567Z,22.32
2022-08-14T02:14:31.097Z,22.30
2022-08-14T02:16:57.952Z,22.38
2022-08-14T02:19:31.746Z,22.20
2022-08-14T02:22:02.993Z,22.27
2022-08-14T02:24:39.671Z,22.27
2022-08-14T02:28:24.682Z,22.26
2022-08-14T02:30:00.007Z,22.25
2022-08-14T02:32:36.689Z,22.32
2022-08-14T02:35:17.805Z,22.23
2022-08-14T02:37:48.422Z,22.22
2022-08-14T02:40:19.738Z,22.26
2022-08-14T02:42:54.083Z,22.29
2022-08-14T02:45:22.224Z,22.14
2022-08-14T02:47:49.538Z,22.16
2022-08-14T02:50:21.172Z,22.08
2022-08-14T02:52:57.321Z,22.15
2022-08-14T02:55:30.858Z,22.13
2022-08-14T02:58:02.950Z,22.01
2022-08-14T03:00:32.872Z,21.92
2022-08-14T03:03:01.547Z,21.98
2022-08-14T03:05:35.882Z,21.90
2022-08-14T03:08:09.036Z,21.83
2022-08-14T03:10:36.983Z,21.79
2022-08-14T03:13:19.185Z,21.80
2022-08-14T03:15:54.991Z,21.75
2022-08-14T03:18:30.874Z,21.68
2022-08-14T03:21:05.892Z,21.68
2022-08-14T03:23:38.062Z,21.59
2022-08-14T03:26:12.844Z,21.67
2022-08-14T03:28:47.231Z,21.69
2022-08-14T03:31:15.028Z,21.72
2022-08-14T03:33:43.271Z,21.74
2022-08-14T03:37:38.050Z,21.69
2022-08-14T03:39:15.183Z,21.73
2022-08-14T03:41:48.600Z,21.67
2022-08-14T03:45:20.111Z,21.57
2022-08-14T03:47:03.059Z,21.45
2022-08-14T03:49:30.463Z,21.54
2022-08-14T03:52:04.583Z,21.46
2022-08-14T03:54:35.635Z,21.49
2022-08-14T03:57:03.548Z,21.42
2022-08-14T03:59:35.364Z,21.24
2022-08-14T04:02:04.492Z,21.30
2022-08-14T04:04:31.748Z,21.27
2022-08-14T04:06:59.920Z,21.19
2022-08-14T04:09:27.466Z,21.23
2022-08-14T04:11:56.205Z,21.17
2022-08-14T04:14:24.296Z,21.08
2022-08-14T04:16:50.905Z,21.02
2022-08-14T04:19:19.266Z,21.13
2022-08-14T04:22:02.976Z,21.05
2022-08-14T04:24:38.130Z,21.02
2022-08-14T04:27:10.047Z,21.07
2022-08-14T04:29:42.697Z,21.02
2022-08-14T04:32:58.815Z,20.95
2022-08-14T04:34:57.104Z,20.85
2022-08-14T04:37:43.353Z,20.90
2022-08-14T04:40:31.624Z,20.84
2022-08-14T04:43:17.596Z,20.84
2022-08-14T04:45:45.341Z,20.84
2022-08-14T04:48:39.243Z,20.74
2022-08-14T04:51:08.128Z,20.75
2022-08-14T04:53:42.865Z,20.67
2022-08-14T04:56:30.995Z,20.73
2022-08-14T04:59:04.978Z,20.74
2022-08-14T05:01:45.233Z,20.72
2022-08-14T05:04:20.131Z,20.67
2022-08-14T05:06:49.270Z,20.66
2022-08-14T05:09:16.303Z,20.72
2022-08-14T05:11:44.675Z,20.71
2022-08-14T05:14:17.258Z,20.70
2022-08-14T05:17:02.062Z,20.70
2022-08-14T05:19:29.896Z,20.82
2022-08-14T05:22:16.789Z,20.82
2022-08-14T05:24:51.447Z,20.82
2022-08-14T05:27:22.664Z,20.86
2022-08-14T05:29:56.743Z,20.87
2022-08-14T05:32:27.543Z,20.88
2022-08-14T05:34:59.609Z,20.93
2022-08-14T05:37:29.672Z,21.02
2022-08-14T05:39:58.129Z,21.06
2022-08-14T05:42:27.100Z,21.06
2022-08-14T05:44:59.389Z,21.11
2022-08-14T05:47:28.674Z,21.19
2022-08-14T05:50:01.724Z,21.19
2022-08-14T05:52:39.247Z,21.29
2022-08-14T05:55:08.550Z,21.41
2022-08-14T05:57:45.659Z,21.48
2022-08-14T06:00:13.011Z,21.51
2022-08-14T06:02:51.831Z,21.59
2022-08-14T06:05:23.338Z,21.70
2022-08-14T06:07:50.218Z,21.72
2022-08-14T06:10:18.937Z,21.81
2022-08-14T06:12:56.509Z,21.88
2022-08-14T06:15:29.396Z,21.90
2022-08-14T06:17:59.193Z,22.02
2022-08-14T06:20:28.128Z,21.90
2022-08-14T06:22:56.402Z,21.99
2022-08-14T06:25:23.632Z,22.13
2022-08-14T06:27:51.992Z,22.18
2022-08-14T06:30:23.547Z,22.22
2022-08-14T06:32:52.949Z,22.33
2022-08-14T06:35:23.429Z,22.32
2022-08-14T06:37:58.278Z,22.39
2022-08-14T06:40:34.889Z,22.50
2022-08-14T06:43:08.408Z,22.62
2022-08-14T06:45:38.711Z,22.73
2022-08-14T06:48:14.553Z,22.75
2022-08-14T06:50:45.378Z,22.88
2022-08-14T06:53:14.371Z,22.97
2022-08-14T06:55:56.146Z,23.06
2022-08-14T06:58:29.218Z,23.22
2022-08-14T07:01:15.866Z,23.36
2022-08-14T07:04:00.956Z,23.42
2022-08-14T07:06:45.652Z,23.58
2022-08-14T07:09:18.128Z,23.54
2022-08-14T07:11:49.520Z,23.65
2022-08-14T07:14:16.293Z,23.76
2022-08-14T07:16:42.898Z,23.90
2022-08-14T07:19:09.816Z,24.08
2022-08-14T07:21:37.187Z,24.13
2022-08-14T07:24:04.581Z,24.33
2022-08-14T07:26:31.259Z,24.43
2022-08-14T07:28:57.725Z,24.47
2022-08-14T07:31:24.392Z,24.54
2022-08-14T07:33:51.600Z,24.68
2022-08-14T07:36:26.957Z,24.83
2022-08-14T07:38:59.736Z,24.86
2022-08-14T07:41:33.783Z,25.05
2022-08-14T07:44:29.438Z,25.25
2022-08-14T07:46:48.179Z,25.36
2022-08-14T07:49:17.753Z,25.48
2022-08-14T07:51:45.137Z,25.87
2022-08-14T07:54:12.142Z,25.88
2022-08-14T07:56:48.137Z,26.00
2022-08-14T07:59:18.170Z,26.23
2022-08-14T08:01:47.961Z,26.38
2022-08-14T08:04:24.583Z,26.47
2022-08-14T08:06:52.682Z,26.68
2022-08-14T08:09:24.449Z,26.77
2022-08-14T08:11:54.540Z,27.01
2022-08-14T08:14:25.204Z,27.18
2022-08-14T08:16:53.965Z,27.24
2022-08-14T08:19:20.472Z,27.23
2022-08-14T08:21:47.899Z,27.51
2022-08-14T08:24:18.420Z,27.41
2022-08-14T08:26:46.919Z,27.29
2022-08-14T08:29:20.267Z,27.37
2022-08-14T08:31:52.454Z,27.37
2022-08-14T08:34:24.143Z,27.50
2022-08-14T08:36:51.511Z,27.48
2022-08-14T08:39:22.825Z,27.55
2022-08-14T08:41:53.414Z,28.03
2022-08-14T08:44:31.738Z,28.15
2022-08-14T08:47:05.194Z,28.07
2022-08-14T08:49:52.649Z,28.42
2022-08-14T08:52:31.302Z,28.63
2022-08-14T08:54:59.059Z,28.51
2022-08-14T08:57:27.415Z,29.01
2022-08-14T08:59:55.233Z,28.79
2022-08-14T09:02:25.997Z,29.02
2022-08-14T09:05:02.165Z,29.21
2022-08-14T09:07:29.096Z,29.34
2022-08-14T09:09:59.328Z,29.40
2022-08-14T09:12:32.058Z,29.30
2022-08-14T09:15:08.942Z,29.74
2022-08-14T09:17:43.686Z,29.86
2022-08-14T09:20:12.845Z,30.00
2022-08-14T09:22:48.318Z,29.88
2022-08-14T09:25:16.762Z,29.99
2022-08-14T09:27:43.511Z,30.30
2022-08-14T09:30:31.264Z,30.61
2022-08-14T09:33:10.879Z,30.67
2022-08-14T09:35:55.031Z,30.90
2022-08-14T09:38:54.328Z,30.55
2022-08-14T09:42:21.190Z,30.71
2022-08-14T09:44:54.407Z,30.68
2022-08-14T09:47:21.346Z,30.54
2022-08-14T09:49:52.117Z,30.58
2022-08-14T09:52:32.755Z,31.08
2022-08-14T09:55:00.278Z,31.52
2022-08-14T09:57:31.308Z,31.95
2022-08-14T09:59:58.811Z,31.87
2022-08-14T10:02:31.234Z,32.25
2022-08-14T10:05:15.603Z,32.06
2022-08-14T10:07:53.678Z,31.91
2022-08-14T10:10:41.748Z,32.82
2022-08-14T10:13:21.652Z,32.58
2022-08-14T10:15:51.322Z,32.06
2022-08-14T10:18:20.184Z,32.43
2022-08-14T10:20:58.288Z,32.70
2022-08-14T10:23:30.116Z,33.10
2022-08-14T10:26:07.785Z,32.86
2022-08-14T10:29:17.632Z,33.00
2022-08-14T10:31:45.366Z,32.53
2022-08-14T10:34:20.925Z,32.66
2022-08-14T10:37:03.899Z,32.61
2022-08-14T10:40:01.889Z,32.15
2022-08-14T10:42:43.670Z,32.95
2022-08-14T10:45:21.807Z,33.64
2022-08-14T10:48:08.704Z,34.29
2022-08-14T10:50:42.528Z,33.54
2022-08-14T10:53:09.295Z,33.38
2022-08-14T10:55:45.502Z,33.54
2022-08-14T10:58:14.829Z,33.72
2022-08-14T11:00:55.497Z,33.70
2022-08-14T11:03:26.652Z,33.70
2022-08-14T11:06:14.412Z,34.24
2022-08-14T11:08:41.049Z,33.96
2022-08-14T11:11:07.571Z,34.88
2022-08-14T11:13:38.211Z,35.04
2022-08-14T11:16:04.903Z,35.57
2022-08-14T11:18:39.963Z,35.44
2022-08-14T11:21:09.441Z,35.83
2022-08-14T11:23:43.817Z,36.26
2022-08-14T11:26:12.423Z,36.23
2022-08-14T11:28:47.187Z,36.64
2022-08-14T11:31:22.149Z,36.67
2022-08-14T11:33:51.813Z,36.55
2022-08-14T11:36:24.010Z,36.79
2022-08-14T11:39:02.157Z,36.64
2022-08-14T11:41:28.699Z,37.03
2022-08-14T11:43:56.269Z,36.41
2022-08-14T11:46:30.529Z,37.18
2022-08-14T11:49:05.593Z,37.61
2022-08-14T11:51:36.046Z,37.89
2022-08-14T11:54:06.199Z,37.71
2022-08-14T11:56:36.622Z,38.21
2022-08-14T11:59:05.761Z,36.54
2022-08-14T12:01:38.100Z,36.61
2022-08-14T12:04:21.503Z,37.68
2022-08-14T12:06:58.496Z,37.54
2022-08-14T12:09:44.696Z,37.52
2022-08-14T12:12:36.320Z,37.59
2022-08-14T12:15:05.306Z,37.02
2022-08-14T12:17:53.148Z,37.44
2022-08-14T12:20:33.527Z,37.22
2022-08-14T12:23:07.634Z,38.62
2022-08-14T12:25:35.548Z,37.74
2022-08-14T12:28:10.292Z,38.67
2022-08-14T12:30:56.558Z,38.92
2022-08-14T12:33:30.886Z,39.12
2022-08-14T12:36:06.160Z,39.25
2022-08-14T12:38:41.205Z,40.16
2022-08-14T12:41:16.252Z,39.92
2022-08-14T12:43:56.374Z,39.27
2022-08-14T12:46:28.561Z,40.11
2022-08-14T12:49:00.309Z,40.16
2022-08-14T12:51:30.933Z,39.71
2022-08-14T12:54:00.098Z,40.03
2022-08-14T12:56:33.043Z,40.45
2022-08-14T12:59:02.211Z,41.11
2022-08-14T13:01:31.780Z,40.64
2022-08-14T13:04:18.921Z,40.01
2022-08-14T13:06:51.277Z,39.69
2022-08-14T13:09:19.749Z,40.74
2022-08-14T13:11:58.907Z,40.97
2022-08-14T13:14:38.576Z,40.72
2022-08-14T13:17:05.610Z,40.91
2022-08-14T13:19:35.773Z,39.69
2022-08-14T13:22:05.518Z,39.94
2022-08-14T13:24:33.876Z,39.39
2022-08-14T13:27:04.421Z,39.72
2022-08-14T13:29:35.885Z,39.69
2022-08-14T13:32:05.471Z,38.84
2022-08-14T13:34:33.150Z,39.28
2022-08-14T13:37:04.039Z,40.26
2022-08-14T13:39:35.941Z,39.96
2022-08-14T13:42:13.685Z,40.49
2022-08-14T13:44:42.765Z,41.17
2022-08-14T13:47:09.543Z,40.76
2022-08-14T13:49:37.830Z,41.61
2022-08-14T13:52:48.141Z,42.57
2022-08-14T13:55:01.280Z,42.32
2022-08-14T13:57:31.503Z,42.75
2022-08-14T14:00:06.834Z,42.01
2022-08-14T14:02:45.844Z,42.33
2022-08-14T14:05:21.049Z,42.93
2022-08-14T14:07:50.650Z,42.80
2022-08-14T14:10:28.311Z,43.19
2022-08-14T14:12:56.110Z,42.22
2022-08-14T14:15:33.866Z,40.95
2022-08-14T14:18:29.617Z,40.97
2022-08-14T14:20:57.497Z,40.86
2022-08-14T14:23:25.325Z,41.25
2022-08-14T14:25:57.447Z,42.50
2022-08-14T14:28:31.299Z,42.92
2022-08-14T14:31:06.613Z,43.21
2022-08-14T14:33:47.607Z,43.25
2022-08-14T14:36:20.926Z,42.88
2022-08-14T14:38:53.315Z,42.04
2022-08-14T14:41:22.898Z,42.60
2022-08-14T14:43:52.008Z,41.29
2022-08-14T14:46:21.048Z,41.77
2022-08-14T14:48:54.572Z,42.13
2022-08-14T14:51:22.044Z,42.73
2022-08-14T14:53:48.955Z,42.41
2022-08-14T14:56:51.278Z,42.92
2022-08-14T14:59:02.092Z,43.33
2022-08-14T15:01:28.807Z,43.68
2022-08-14T15:03:55.476Z,43.52
2022-08-14T15:06:28.890Z,42.58
2022-08-14T15:08:59.989Z,43.00
2022-08-14T15:11:30.158Z,41.94
2022-08-14T15:13:57.176Z,39.73
2022-08-14T15:16:24.766Z,41.40
2022-08-14T15:18:51.474Z,41.90
2022-08-14T15:21:19.559Z,42.13
2022-08-14T15:23:47.947Z,41.21
2022-08-14T15:26:31.300Z,41.00
2022-08-14T15:29:05.259Z,40.41
2022-08-14T15:31:36.609Z,40.23
2022-08-14T15:34:44.859Z,39.74
2022-08-14T15:36:57.657Z,40.17
2022-08-14T15:39:24.282Z,39.75
2022-08-14T15:41:51.009Z,38.76
2022-08-14T15:44:26.344Z,39.63
2022-08-14T15:46:58.227Z,40.15
2022-08-14T15:49:28.497Z,40.21
2022-08-14T15:52:01.058Z,39.20
2022-08-14T15:54:31.616Z,38.63
2022-08-14T15:57:09.214Z,38.78
2022-08-14T15:59:56.199Z,38.62
2022-08-14T16:02:24.510Z,38.16
2022-08-14T16:04:54.706Z,38.18
2022-08-14T16:07:22.271Z,38.25
2022-08-14T16:10:25.390Z,38.83
2022-08-14T16:12:41.725Z,38.41
2022-08-14T16:15:15.838Z,38.32
2022-08-14T16:17:44.730Z,38.37
2022-08-14T16:20:12.772Z,38.51
2022-08-14T16:23:00.576Z,38.74
2022-08-14T16:25:35.373Z,37.75
2022-08-14T16:28:03.353Z,38.38
2022-08-14T16:30:34.241Z,38.22
2022-08-14T16:33:05.269Z,38.33
2022-08-14T16:35:42.265Z,38.54
2022-08-14T16:38:45.905Z,38.01
2022-08-14T16:41:17.979Z,37.80
2022-08-14T16:43:45.813Z,38.20
2022-08-14T16:46:18.425Z,37.81
2022-08-14T16:48:55.460Z,37.68
2022-08-14T16:51:24.011Z,37.76
2022-08-14T16:53:50.679Z,37.49
2022-08-14T16:56:23.504Z,37.50
2022-08-14T16:59:05.134Z,37.32
2022-08-14T17:01:31.886Z,36.80
2022-08-14T17:04:08.572Z,36.70
2022-08-14T17:06:52.812Z,36.12
2022-08-14T17:09:36.938Z,36.53
2022-08-14T17:12:10.246Z,36.13
2022-08-14T17:15:10.568Z,36.40
2022-08-14T17:17:40.693Z,36.42
2022-08-14T17:20:53.925Z,36.53
2022-08-14T17:23:01.550Z,36.52
2022-08-14T17:25:37.486Z,36.10
2022-08-14T17:28:36.965Z,35.70
2022-08-14T17:31:05.974Z,35.81
2022-08-14T17:33:40.417Z,35.77
2022-08-14T17:36:21.513Z,35.64
2022-08-14T17:39:11.974Z,35.31
2022-08-14T17:42:02.934Z,35.28
2022-08-14T17:44:45.263Z,35.15
2022-08-14T17:47:14.623Z,35.03
2022-08-14T17:49:47.036Z,34.90
2022-08-14T17:52:33.858Z,34.91
2022-08-14T17:55:02.671Z,34.78
2022-08-14T17:57:35.599Z,34.57
2022-08-14T18:00:16.207Z,34.57
2022-08-14T18:02:50.575Z,34.26
2022-08-14T18:05:23.659Z,34.33
2022-08-14T18:08:32.371Z,34.15
2022-08-14T18:10:55.720Z,33.96
2022-08-14T18:13:39.027Z,33.80
2022-08-14T18:16:20.364Z,33.61
2022-08-14T18:18:49.742Z,33.43
2022-08-14T18:21:42.626Z,33.17
2022-08-14T18:24:04.783Z,33.16
2022-08-14T18:27:01.652Z,32.92
2022-08-14T18:29:31.693Z,32.72
2022-08-14T18:31:58.542Z,32.53
2022-08-14T18:34:37.689Z,32.54
2022-08-14T18:37:17.657Z,32.24
2022-08-14T18:40:02.843Z,32.24
2022-08-14T18:42:40.839Z,31.99
2022-08-14T18:45:19.033Z,31.95
2022-08-14T18:48:28.654Z,31.79
2022-08-14T18:51:11.776Z,31.56
2022-08-14T18:53:55.954Z,31.45
2022-08-14T18:56:58.438Z,31.24
2022-08-14T18:59:43.751Z,30.97
2022-08-14T19:02:30.469Z,30.94
2022-08-14T19:05:02.374Z,30.74
2022-08-14T19:07:33.961Z,30.73
2022-08-14T19:10:05.672Z,30.55
2022-08-14T19:12:58.397Z,30.45
2022-08-14T19:15:38.066Z,30.24
2022-08-14T19:18:27.963Z,30.21
2022-08-14T19:21:02.309Z,29.96
2022-08-14T19:23:44.805Z,29.90
2022-08-14T19:26:35.463Z,29.76
2022-08-14T19:29:37.700Z,29.60
2022-08-14T19:32:36.471Z,29.44
2022-08-14T19:35:16.923Z,29.37
2022-08-14T19:37:52.560Z,29.37
2022-08-14T19:40:34.469Z,29.11
2022-08-14T19:43:08.937Z,29.18
2022-08-14T19:45:38.259Z,29.07
2022-08-14T19:48:16.171Z,28.94
2022-08-14T19:50:46.934Z,28.84
2022-08-14T19:53:17.247Z,28.70
2022-08-14T19:55:59.385Z,28.71
2022-08-14T19:58:55.360Z,28.75
2022-08-14T20:01:36.343Z,28.64
2022-08-14T20:04:07.919Z,28.68
2022-08-14T20:06:55.106Z,28.50
2022-08-14T20:11:08.060Z,28.35
2022-08-14T20:12:29.043Z,28.19
2022-08-14T20:15:06.159Z,27.90
2022-08-14T20:17:40.416Z,28.13
2022-08-14T20:20:30.784Z,28.02
2022-08-14T20:23:10.925Z,27.88
2022-08-14T20:25:45.695Z,27.80
2022-08-14T20:28:31.651Z,27.85
2022-08-14T20:31:18.546Z,27.79
2022-08-14T20:34:06.033Z,27.78
2022-08-14T20:36:37.768Z,27.72
2022-08-14T20:39:09.563Z,27.71
2022-08-14T20:41:48.990Z,27.69
2022-08-14T20:44:42.966Z,27.73
2022-08-14T20:47:16.249Z,27.61
2022-08-14T20:49:43.485Z,27.48
2022-08-14T20:52:19.055Z,27.45
2022-08-14T20:54:50.411Z,27.42
2022-08-14T20:57:18.688Z,27.45
2022-08-14T20:59:53.249Z,27.31
2022-08-14T21:02:34.515Z,27.33
2022-08-14T21:05:16.609Z,27.24
2022-08-14T21:07:44.457Z,27.38
2022-08-14T21:10:33.640Z,27.25
2022-08-14T21:14:09.336Z,27.19
2022-08-14T21:15:57.503Z,27.11
2022-08-14T21:18:34.479Z,27.13
2022-08-14T21:21:07.492Z,26.95
2022-08-14T21:23:54.281Z,26.91
2022-08-14T21:27:00.207Z,26.84
2022-08-14T21:29:19.411Z,26.77
2022-08-14T21:31:55.777Z,26.75
2022-08-14T21:34:30.906Z,26.70
2022-08-14T21:37:09.806Z,26.68
2022-08-14T21:39:36.655Z,26.59
2022-08-14T21:42:05.664Z,26.58
2022-08-14T21:44:42.798Z,26.46
2022-08-14T21:47:10.253Z,26.35
2022-08-14T21:49:39.121Z,26.39
2022-08-14T21:52:51.794Z,26.45
2022-08-14T21:55:08.890Z,26.26
2022-08-14T21:58:44.813Z,26.32
2022-08-14T22:00:34.595Z,26.23
2022-08-14T22:03:06.169Z,26.22
2022-08-14T22:05:32.697Z,26.18
2022-08-14T22:07:59.330Z,26.21
2022-08-14T22:10:29.938Z,25.81
2022-08-14T22:13:01.373Z,25.67
2022-08-14T22:15:29.851Z,25.80
2022-08-14T22:17:58.208Z,25.81
2022-08-14T22:20:29.884Z,25.92
2022-08-14T22:22:58.362Z,25.91
2022-08-14T22:25:33.915Z,25.76
2022-08-14T22:28:04.173Z,25.74
2022-08-14T22:30:31.306Z,25.68
2022-08-14T22:33:00.177Z,25.78
2022-08-14T22:35:27.940Z,25.80
2022-08-14T22:38:01.654Z,25.66
2022-08-14T22:41:02.219Z,25.63
2022-08-14T22:43:33.536Z,25.63
2022-08-14T22:46:02.745Z,25.57
2022-08-14T22:48:32.992Z,25.67
2022-08-14T22:50:59.464Z,25.61
2022-08-14T22:53:29.489Z,25.64
2022-08-14T22:55:56.758Z,25.58
2022-08-14T22:58:30.007Z,25.53
2022-08-14T23:01:00.058Z,25.46
2022-08-14T23:03:27.667Z,25.43
2022-08-14T23:05:55.663Z,25.49
2022-08-14T23:09:01.905Z,25.44
2022-08-14T23:11:10.400Z,25.52
2022-08-14T23:13:43.380Z,25.30
2022-08-14T23:16:10.843Z,25.33
2022-08-14T23:18:47.556Z,25.43
2022-08-14T23:21:22.014Z,25.47
2022-08-14T23:23:54.948Z,25.34
2022-08-14T23:26:47.123Z,25.33
2022-08-14T23:29:14.636Z,25.43
2022-08-14T23:31:44.828Z,25.31
2022-08-14T23:34:20.863Z,25.34
2022-08-14T23:36:53.242Z,25.34
2022-08-14T23:39:24.394Z,25.19
2022-08-14T23:41:53.547Z,25.24
2022-08-14T23:44:24.287Z,25.22
2022-08-14T23:46:56.932Z,25.10
2022-08-14T23:49:28.578Z,25.06
2022-08-14T23:52:51.509Z,25.07
2022-08-14T23:55:02.349Z,24.94
2022-08-14T23:57:30.693Z,25.03
2022-08-14T23:59:57.444Z,25.03
